sensor_id;sensor_type;location;lat;lon;timestamp;temperature;humidity
516;DHT22;244;48.508;9.052;2023-07-16T00:01:14;21.70;32.80
516;DHT22;244;48.508;9.052;2023-07-16T00:03:41;21.60;33.00
516;DHT22;244;48.508;9.052;2023-07-16T00:06:08;21.60;33.30
516;DHT22;244;48.508;9.052;2023-07-16T00:08:35;21.50;33.20
516;DHT22;244;48.508;9.052;2023-07-16T00:11:04;21.40;33.20
516;DHT22;244;48.508;9.052;2023-07-16T00:13:32;21.30;34.00
516;DHT22;244;48.508;9.052;2023-07-16T00:15:59;21.30;33.60
516;DHT22;244;48.508;9.052;2023-07-16T00:18:26;21.20;33.90
516;DHT22;244;48.508;9.052;2023-07-16T00:20:54;21.20;34.20
516;DHT22;244;48.508;9.052;2023-07-16T00:23:21;21.20;34.50
516;DHT22;244;48.508;9.052;2023-07-16T00:25:48;21.30;34.60
516;DHT22;244;48.508;9.052;2023-07-16T00:28:16;21.20;34.60
516;DHT22;244;48.508;9.052;2023-07-16T00:30:43;21.30;35.00
516;DHT22;244;48.508;9.052;2023-07-16T00:33:10;21.30;35.00
516;DHT22;244;48.508;9.052;2023-07-16T00:35:37;21.40;35.00
516;DHT22;244;48.508;9.052;2023-07-16T00:38:04;21.50;34.80
516;DHT22;244;48.508;9.052;2023-07-16T00:40:30;21.50;34.50
516;DHT22;244;48.508;9.052;2023-07-16T00:42:57;21.60;34.30
516;DHT22;244;48.508;9.052;2023-07-16T00:45:26;21.60;33.90
516;DHT22;244;48.508;9.052;2023-07-16T00:47:53;21.60;33.90
516;DHT22;244;48.508;9.052;2023-07-16T00:50:20;21.60;33.70
516;DHT22;244;48.508;9.052;2023-07-16T00:52:47;21.60;33.70
516;DHT22;244;48.508;9.052;2023-07-16T00:55:14;21.60;33.70
516;DHT22;244;48.508;9.052;2023-07-16T00:57:42;21.60;33.60
516;DHT22;244;48.508;9.052;2023-07-16T01:00:10;21.60;33.40
516;DHT22;244;48.508;9.052;2023-07-16T01:02:40;21.50;33.10
516;DHT22;244;48.508;9.052;2023-07-16T01:05:08;21.40;33.10
516;DHT22;244;48.508;9.052;2023-07-16T01:07:36;21.30;32.60
516;DHT22;244;48.508;9.052;2023-07-16T01:10:04;21.20;32.50
516;DHT22;244;48.508;9.052;2023-07-16T01:12:32;21.20;32.50
516;DHT22;244;48.508;9.052;2023-07-16T01:14:59;21.10;32.40
516;DHT22;244;48.508;9.052;2023-07-16T01:17:26;21.00;32.50
516;DHT22;244;48.508;9.052;2023-07-16T01:19:55;20.80;32.80
516;DHT22;244;48.508;9.052;2023-07-16T01:22:45;20.70;33.20
516;DHT22;244;48.508;9.052;2023-07-16T01:25:42;20.60;33.50
516;DHT22;244;48.508;9.052;2023-07-16T01:28:25;20.50;34.00
516;DHT22;244;48.508;9.052;2023-07-16T01:30:55;20.40;34.10
516;DHT22;244;48.508;9.052;2023-07-16T01:33:23;20.40;34.00
516;DHT22;244;48.508;9.052;2023-07-16T01:35:51;20.40;35.00
516;DHT22;244;48.508;9.052;2023-07-16T01:38:18;20.40;34.30
516;DHT22;244;48.508;9.052;2023-07-16T01:40:46;20.40;34.90
516;DHT22;244;48.508;9.052;2023-07-16T01:43:13;20.40;33.90
516;DHT22;244;48.508;9.052;2023-07-16T01:45:40;20.40;33.80
516;DHT22;244;48.508;9.052;2023-07-16T01:48:16;20.40;33.70
516;DHT22;244;48.508;9.052;2023-07-16T01:50:48;20.30;34.10
516;DHT22;244;48.508;9.052;2023-07-16T01:53:15;20.30;34.10
516;DHT22;244;48.508;9.052;2023-07-16T01:55:41;20.30;34.10
516;DHT22;244;48.508;9.052;2023-07-16T01:58:08;20.30;34.20
516;DHT22;244;48.508;9.052;2023-07-16T02:00:36;20.30;35.00
516;DHT22;244;48.508;9.052;2023-07-16T02:03:03;20.20;34.30
516;DHT22;244;48.508;9.052;2023-07-16T02:05:31;20.20;34.00
516;DHT22;244;48.508;9.052;2023-07-16T02:07:58;20.20;33.70
516;DHT22;244;48.508;9.052;2023-07-16T02:10:26;20.20;33.50
516;DHT22;244;48.508;9.052;2023-07-16T02:12:52;20.20;34.30
516;DHT22;244;48.508;9.052;2023-07-16T02:15:19;20.10;33.70
516;DHT22;244;48.508;9.052;2023-07-16T02:17:47;20.10;35.00
516;DHT22;244;48.508;9.052;2023-07-16T02:20:14;20.10;34.40
516;DHT22;244;48.508;9.052;2023-07-16T02:22:43;20.10;34.30
516;DHT22;244;48.508;9.052;2023-07-16T02:25:09;20.10;34.10
516;DHT22;244;48.508;9.052;2023-07-16T02:27:36;20.10;33.80
516;DHT22;244;48.508;9.052;2023-07-16T02:30:04;20.10;34.10
516;DHT22;244;48.508;9.052;2023-07-16T02:32:32;20.10;34.50
516;DHT22;244;48.508;9.052;2023-07-16T02:34:59;20.10;34.50
516;DHT22;244;48.508;9.052;2023-07-16T02:37:26;20.10;34.60
516;DHT22;244;48.508;9.052;2023-07-16T02:39:55;20.10;35.40
516;DHT22;244;48.508;9.052;2023-07-16T02:42:22;20.10;34.60
516;DHT22;244;48.508;9.052;2023-07-16T02:44:49;20.10;34.80
516;DHT22;244;48.508;9.052;2023-07-16T02:47:16;20.20;34.60
516;DHT22;244;48.508;9.052;2023-07-16T02:49:43;20.20;34.40
516;DHT22;244;48.508;9.052;2023-07-16T02:52:10;20.20;34.10
516;DHT22;244;48.508;9.052;2023-07-16T02:54:37;20.20;34.00
516;DHT22;244;48.508;9.052;2023-07-16T02:57:06;20.20;33.90
516;DHT22;244;48.508;9.052;2023-07-16T02:59:33;20.20;33.90
516;DHT22;244;48.508;9.052;2023-07-16T03:01:59;20.20;33.90
516;DHT22;244;48.508;9.052;2023-07-16T03:04:26;20.20;33.80
516;DHT22;244;48.508;9.052;2023-07-16T03:06:53;20.20;33.70
516;DHT22;244;48.508;9.052;2023-07-16T03:09:20;20.20;34.40
516;DHT22;244;48.508;9.052;2023-07-16T03:11:47;20.20;33.60
516;DHT22;244;48.508;9.052;2023-07-16T03:14:15;20.20;33.50
516;DHT22;244;48.508;9.052;2023-07-16T03:16:42;20.10;33.40
516;DHT22;244;48.508;9.052;2023-07-16T03:19:09;20.10;33.40
516;DHT22;244;48.508;9.052;2023-07-16T03:21:36;20.10;33.50
516;DHT22;244;48.508;9.052;2023-07-16T03:24:03;20.10;33.60
516;DHT22;244;48.508;9.052;2023-07-16T03:26:30;20.20;33.80
516;DHT22;244;48.508;9.052;2023-07-16T03:28:57;20.20;33.80
516;DHT22;244;48.508;9.052;2023-07-16T03:31:25;20.20;33.80
516;DHT22;244;48.508;9.052;2023-07-16T03:33:52;20.20;33.70
516;DHT22;244;48.508;9.052;2023-07-16T03:36:19;20.20;33.70
516;DHT22;244;48.508;9.052;2023-07-16T03:38:46;20.20;33.70
516;DHT22;244;48.508;9.052;2023-07-16T03:41:13;20.20;33.70
516;DHT22;244;48.508;9.052;2023-07-16T03:43:40;20.20;33.60
516;DHT22;244;48.508;9.052;2023-07-16T03:46:07;20.10;33.50
516;DHT22;244;48.508;9.052;2023-07-16T03:48:39;20.10;33.40
516;DHT22;244;48.508;9.052;2023-07-16T03:51:06;19.90;32.90
516;DHT22;244;48.508;9.052;2023-07-16T03:53:33;19.80;33.40
516;DHT22;244;48.508;9.052;2023-07-16T03:56:00;19.70;33.50
516;DHT22;244;48.508;9.052;2023-07-16T03:58:27;19.70;33.80
516;DHT22;244;48.508;9.052;2023-07-16T04:00:54;19.60;33.30
516;DHT22;244;48.508;9.052;2023-07-16T04:03:21;19.50;33.90
516;DHT22;244;48.508;9.052;2023-07-16T04:05:50;19.50;34.00
516;DHT22;244;48.508;9.052;2023-07-16T04:08:16;19.50;33.80
516;DHT22;244;48.508;9.052;2023-07-16T04:10:43;19.50;33.50
516;DHT22;244;48.508;9.052;2023-07-16T04:13:10;19.50;33.40
516;DHT22;244;48.508;9.052;2023-07-16T04:15:37;19.40;33.20
516;DHT22;244;48.508;9.052;2023-07-16T04:18:04;19.40;33.60
516;DHT22;244;48.508;9.052;2023-07-16T04:20:31;19.40;33.60
516;DHT22;244;48.508;9.052;2023-07-16T04:23:00;19.40;33.70
516;DHT22;244;48.508;9.052;2023-07-16T04:25:27;19.40;34.00
516;DHT22;244;48.508;9.052;2023-07-16T04:27:55;19.30;34.00
516;DHT22;244;48.508;9.052;2023-07-16T04:30:22;19.30;33.90
516;DHT22;244;48.508;9.052;2023-07-16T04:32:49;19.20;34.10
516;DHT22;244;48.508;9.052;2023-07-16T04:35:16;19.20;34.30
516;DHT22;244;48.508;9.052;2023-07-16T04:37:43;19.20;34.30
516;DHT22;244;48.508;9.052;2023-07-16T04:40:12;19.20;34.30
516;DHT22;244;48.508;9.052;2023-07-16T04:42:39;19.10;34.30
516;DHT22;244;48.508;9.052;2023-07-16T04:45:06;19.10;34.40
516;DHT22;244;48.508;9.052;2023-07-16T04:47:33;19.10;34.60
516;DHT22;244;48.508;9.052;2023-07-16T04:50:00;19.10;34.50
516;DHT22;244;48.508;9.052;2023-07-16T04:52:27;19.10;34.60
516;DHT22;244;48.508;9.052;2023-07-16T04:54:55;19.20;34.50
516;DHT22;244;48.508;9.052;2023-07-16T04:57:23;19.20;34.30
516;DHT22;244;48.508;9.052;2023-07-16T04:59:50;19.20;34.90
516;DHT22;244;48.508;9.052;2023-07-16T05:02:18;19.20;34.10
516;DHT22;244;48.508;9.052;2023-07-16T05:04:45;19.20;33.70
516;DHT22;244;48.508;9.052;2023-07-16T05:07:13;19.20;34.10
516;DHT22;244;48.508;9.052;2023-07-16T05:09:41;19.20;34.00
516;DHT22;244;48.508;9.052;2023-07-16T05:12:08;19.20;34.10
516;DHT22;244;48.508;9.052;2023-07-16T05:14:45;19.20;34.40
516;DHT22;244;48.508;9.052;2023-07-16T05:17:12;19.20;34.20
516;DHT22;244;48.508;9.052;2023-07-16T05:19:39;19.20;34.40
516;DHT22;244;48.508;9.052;2023-07-16T05:22:06;19.20;34.40
516;DHT22;244;48.508;9.052;2023-07-16T05:24:33;19.20;34.30
516;DHT22;244;48.508;9.052;2023-07-16T05:27:00;19.10;34.90
516;DHT22;244;48.508;9.052;2023-07-16T05:29:28;19.20;34.70
516;DHT22;244;48.508;9.052;2023-07-16T05:31:56;19.20;34.30
516;DHT22;244;48.508;9.052;2023-07-16T05:34:23;19.30;35.00
516;DHT22;244;48.508;9.052;2023-07-16T05:36:53;19.40;34.20
516;DHT22;244;48.508;9.052;2023-07-16T05:39:20;19.40;34.00
516;DHT22;244;48.508;9.052;2023-07-16T05:41:47;19.50;33.80
516;DHT22;244;48.508;9.052;2023-07-16T05:44:14;19.50;34.60
516;DHT22;244;48.508;9.052;2023-07-16T05:46:41;19.50;34.70
516;DHT22;244;48.508;9.052;2023-07-16T05:49:09;19.60;34.00
516;DHT22;244;48.508;9.052;2023-07-16T05:51:36;19.60;33.80
516;DHT22;244;48.508;9.052;2023-07-16T05:54:03;19.70;33.90
516;DHT22;244;48.508;9.052;2023-07-16T05:56:30;19.70;33.70
516;DHT22;244;48.508;9.052;2023-07-16T05:58:57;19.70;33.60
516;DHT22;244;48.508;9.052;2023-07-16T06:01:23;19.70;33.50
516;DHT22;244;48.508;9.052;2023-07-16T06:03:50;19.70;33.30
516;DHT22;244;48.508;9.052;2023-07-16T06:06:19;19.60;33.40
516;DHT22;244;48.508;9.052;2023-07-16T06:08:46;19.60;33.20
516;DHT22;244;48.508;9.052;2023-07-16T06:11:13;19.60;33.20
516;DHT22;244;48.508;9.052;2023-07-16T06:13:40;19.60;33.20
516;DHT22;244;48.508;9.052;2023-07-16T06:16:07;19.60;33.20
516;DHT22;244;48.508;9.052;2023-07-16T06:18:34;19.60;33.40
516;DHT22;244;48.508;9.052;2023-07-16T06:21:01;19.60;33.50
516;DHT22;244;48.508;9.052;2023-07-16T06:23:29;19.60;33.60
516;DHT22;244;48.508;9.052;2023-07-16T06:25:56;19.70;33.50
516;DHT22;244;48.508;9.052;2023-07-16T06:28:23;19.70;33.40
516;DHT22;244;48.508;9.052;2023-07-16T06:30:51;19.80;33.50
516;DHT22;244;48.508;9.052;2023-07-16T06:33:18;19.80;33.30
516;DHT22;244;48.508;9.052;2023-07-16T06:35:45;19.80;33.40
516;DHT22;244;48.508;9.052;2023-07-16T06:38:13;19.90;33.40
516;DHT22;244;48.508;9.052;2023-07-16T06:40:46;20.00;33.30
516;DHT22;244;48.508;9.052;2023-07-16T06:43:13;20.10;33.10
516;DHT22;244;48.508;9.052;2023-07-16T06:45:40;20.10;32.80
516;DHT22;244;48.508;9.052;2023-07-16T06:48:07;20.00;32.70
516;DHT22;244;48.508;9.052;2023-07-16T06:50:34;20.00;33.00
516;DHT22;244;48.508;9.052;2023-07-16T06:53:01;20.00;33.10
516;DHT22;244;48.508;9.052;2023-07-16T06:55:28;19.90;33.10
516;DHT22;244;48.508;9.052;2023-07-16T06:57:56;19.90;34.00
516;DHT22;244;48.508;9.052;2023-07-16T07:00:23;19.90;33.50
516;DHT22;244;48.508;9.052;2023-07-16T07:02:50;19.90;33.90
516;DHT22;244;48.508;9.052;2023-07-16T07:05:17;19.90;34.80
516;DHT22;244;48.508;9.052;2023-07-16T07:07:44;19.90;34.00
516;DHT22;244;48.508;9.052;2023-07-16T07:10:11;19.90;34.00
516;DHT22;244;48.508;9.052;2023-07-16T07:12:39;19.90;33.70
516;DHT22;244;48.508;9.052;2023-07-16T07:15:08;19.80;33.50
516;DHT22;244;48.508;9.052;2023-07-16T07:17:35;19.80;34.00
516;DHT22;244;48.508;9.052;2023-07-16T07:20:03;19.90;34.40
516;DHT22;244;48.508;9.052;2023-07-16T07:22:30;19.90;34.60
516;DHT22;244;48.508;9.052;2023-07-16T07:24:57;19.90;34.80
516;DHT22;244;48.508;9.052;2023-07-16T07:27:24;19.90;34.80
516;DHT22;244;48.508;9.052;2023-07-16T07:29:51;20.00;35.20
516;DHT22;244;48.508;9.052;2023-07-16T07:32:20;20.10;36.10
516;DHT22;244;48.508;9.052;2023-07-16T07:34:47;20.20;34.80
516;DHT22;244;48.508;9.052;2023-07-16T07:37:14;20.20;34.70
516;DHT22;244;48.508;9.052;2023-07-16T07:39:41;20.20;34.30
516;DHT22;244;48.508;9.052;2023-07-16T07:42:07;20.20;34.30
516;DHT22;244;48.508;9.052;2023-07-16T07:44:35;20.20;34.10
516;DHT22;244;48.508;9.052;2023-07-16T07:47:03;20.20;33.90
516;DHT22;244;48.508;9.052;2023-07-16T07:49:31;20.30;33.60
516;DHT22;244;48.508;9.052;2023-07-16T07:51:58;20.40;33.40
516;DHT22;244;48.508;9.052;2023-07-16T07:54:25;20.50;33.20
516;DHT22;244;48.508;9.052;2023-07-16T07:56:52;20.60;32.90
516;DHT22;244;48.508;9.052;2023-07-16T07:59:19;20.70;32.60
516;DHT22;244;48.508;9.052;2023-07-16T08:01:46;20.90;32.50
516;DHT22;244;48.508;9.052;2023-07-16T08:04:13;21.10;32.20
516;DHT22;244;48.508;9.052;2023-07-16T08:06:41;21.30;31.50
516;DHT22;244;48.508;9.052;2023-07-16T08:09:09;21.40;31.30
516;DHT22;244;48.508;9.052;2023-07-16T08:11:35;21.60;31.70
516;DHT22;244;48.508;9.052;2023-07-16T08:14:02;21.80;30.10
516;DHT22;244;48.508;9.052;2023-07-16T08:16:29;22.00;29.60
516;DHT22;244;48.508;9.052;2023-07-16T08:18:56;22.10;29.10
516;DHT22;244;48.508;9.052;2023-07-16T08:21:23;22.10;28.80
516;DHT22;244;48.508;9.052;2023-07-16T08:23:51;22.20;28.70
516;DHT22;244;48.508;9.052;2023-07-16T08:26:18;22.40;28.50
516;DHT22;244;48.508;9.052;2023-07-16T08:28:45;22.50;28.20
516;DHT22;244;48.508;9.052;2023-07-16T08:31:12;22.50;28.10
516;DHT22;244;48.508;9.052;2023-07-16T08:33:39;22.70;28.30
516;DHT22;244;48.508;9.052;2023-07-16T08:36:07;22.90;27.40
516;DHT22;244;48.508;9.052;2023-07-16T08:38:33;23.00;26.80
516;DHT22;244;48.508;9.052;2023-07-16T08:41:02;23.10;26.30
516;DHT22;244;48.508;9.052;2023-07-16T08:43:29;23.20;26.20
516;DHT22;244;48.508;9.052;2023-07-16T08:45:56;23.20;25.80
516;DHT22;244;48.508;9.052;2023-07-16T08:48:24;23.20;25.60
516;DHT22;244;48.508;9.052;2023-07-16T08:50:51;23.30;26.20
516;DHT22;244;48.508;9.052;2023-07-16T08:53:18;23.30;26.00
516;DHT22;244;48.508;9.052;2023-07-16T08:55:46;23.10;25.40
516;DHT22;244;48.508;9.052;2023-07-16T08:58:15;23.00;25.50
516;DHT22;244;48.508;9.052;2023-07-16T09:00:44;22.90;25.70
516;DHT22;244;48.508;9.052;2023-07-16T09:03:12;22.90;25.90
516;DHT22;244;48.508;9.052;2023-07-16T09:05:39;22.90;26.40
516;DHT22;244;48.508;9.052;2023-07-16T09:08:06;23.00;25.70
516;DHT22;244;48.508;9.052;2023-07-16T09:10:33;23.20;25.40
516;DHT22;244;48.508;9.052;2023-07-16T09:13:00;23.30;25.20
516;DHT22;244;48.508;9.052;2023-07-16T09:15:30;23.60;25.10
516;DHT22;244;48.508;9.052;2023-07-16T09:17:57;23.80;24.90
516;DHT22;244;48.508;9.052;2023-07-16T09:20:23;24.00;24.30
516;DHT22;244;48.508;9.052;2023-07-16T09:22:53;24.20;23.80
516;DHT22;244;48.508;9.052;2023-07-16T09:25:25;24.40;23.70
516;DHT22;244;48.508;9.052;2023-07-16T09:27:52;24.40;23.30
516;DHT22;244;48.508;9.052;2023-07-16T09:30:20;24.30;22.80
516;DHT22;244;48.508;9.052;2023-07-16T09:32:48;24.20;21.50
516;DHT22;244;48.508;9.052;2023-07-16T09:35:16;24.10;20.40
516;DHT22;244;48.508;9.052;2023-07-16T09:37:45;24.00;20.70
516;DHT22;244;48.508;9.052;2023-07-16T09:40:12;23.90;21.80
516;DHT22;244;48.508;9.052;2023-07-16T09:42:41;23.90;22.20
516;DHT22;244;48.508;9.052;2023-07-16T09:45:12;23.90;22.60
516;DHT22;244;48.508;9.052;2023-07-16T09:47:39;23.90;23.10
516;DHT22;244;48.508;9.052;2023-07-16T09:50:09;24.00;23.60
516;DHT22;244;48.508;9.052;2023-07-16T09:52:37;23.90;23.10
516;DHT22;244;48.508;9.052;2023-07-16T09:55:08;24.00;23.30
516;DHT22;244;48.508;9.052;2023-07-16T09:57:38;24.10;23.70
516;DHT22;244;48.508;9.052;2023-07-16T10:00:08;24.40;23.80
516;DHT22;244;48.508;9.052;2023-07-16T10:02:37;24.60;23.90
516;DHT22;244;48.508;9.052;2023-07-16T10:05:13;24.70;24.50
516;DHT22;244;48.508;9.052;2023-07-16T10:07:40;24.70;24.80
516;DHT22;244;48.508;9.052;2023-07-16T10:10:08;24.80;24.00
516;DHT22;244;48.508;9.052;2023-07-16T10:12:36;24.90;23.50
516;DHT22;244;48.508;9.052;2023-07-16T10:15:05;25.10;22.90
516;DHT22;244;48.508;9.052;2023-07-16T10:17:33;25.10;23.00
516;DHT22;244;48.508;9.052;2023-07-16T10:20:00;25.00;23.00
516;DHT22;244;48.508;9.052;2023-07-16T10:22:37;25.00;22.20
516;DHT22;244;48.508;9.052;2023-07-16T10:25:08;25.00;23.10
516;DHT22;244;48.508;9.052;2023-07-16T10:27:38;25.00;23.00
516;DHT22;244;48.508;9.052;2023-07-16T10:30:06;25.00;22.80
516;DHT22;244;48.508;9.052;2023-07-16T10:32:33;25.10;23.00
516;DHT22;244;48.508;9.052;2023-07-16T10:35:01;25.10;23.30
516;DHT22;244;48.508;9.052;2023-07-16T10:37:28;25.30;23.50
516;DHT22;244;48.508;9.052;2023-07-16T10:39:58;25.50;23.20
516;DHT22;244;48.508;9.052;2023-07-16T10:42:26;25.60;21.20
516;DHT22;244;48.508;9.052;2023-07-16T10:44:54;25.70;21.30
516;DHT22;244;48.508;9.052;2023-07-16T10:47:23;25.70;21.10
516;DHT22;244;48.508;9.052;2023-07-16T10:49:50;26.00;21.50
516;DHT22;244;48.508;9.052;2023-07-16T10:52:20;26.10;21.30
516;DHT22;244;48.508;9.052;2023-07-16T10:54:47;26.10;21.00
516;DHT22;244;48.508;9.052;2023-07-16T10:57:17;26.00;21.10
516;DHT22;244;48.508;9.052;2023-07-16T10:59:45;26.00;21.20
516;DHT22;244;48.508;9.052;2023-07-16T11:02:14;26.00;21.90
516;DHT22;244;48.508;9.052;2023-07-16T11:04:41;26.10;21.00
516;DHT22;244;48.508;9.052;2023-07-16T11:07:09;26.20;21.00
516;DHT22;244;48.508;9.052;2023-07-16T11:09:41;26.30;19.70
516;DHT22;244;48.508;9.052;2023-07-16T11:12:10;26.20;17.70
516;DHT22;244;48.508;9.052;2023-07-16T11:14:42;26.20;17.60
516;DHT22;244;48.508;9.052;2023-07-16T11:17:10;26.20;18.00
516;DHT22;244;48.508;9.052;2023-07-16T11:19:37;26.30;17.50
516;DHT22;244;48.508;9.052;2023-07-16T11:22:06;26.30;17.80
516;DHT22;244;48.508;9.052;2023-07-16T11:24:37;26.30;17.60
516;DHT22;244;48.508;9.052;2023-07-16T11:27:05;26.20;17.80
516;DHT22;244;48.508;9.052;2023-07-16T11:29:37;26.10;16.10
516;DHT22;244;48.508;9.052;2023-07-16T11:32:05;26.00;16.60
516;DHT22;244;48.508;9.052;2023-07-16T11:34:32;26.00;16.60
516;DHT22;244;48.508;9.052;2023-07-16T11:37:09;25.90;15.70
516;DHT22;244;48.508;9.052;2023-07-16T11:39:36;26.00;14.30
516;DHT22;244;48.508;9.052;2023-07-16T11:42:05;26.10;14.50
516;DHT22;244;48.508;9.052;2023-07-16T11:44:33;26.20;14.30
516;DHT22;244;48.508;9.052;2023-07-16T11:47:03;26.50;14.40
516;DHT22;244;48.508;9.052;2023-07-16T11:49:30;26.60;13.20
516;DHT22;244;48.508;9.052;2023-07-16T11:51:57;26.60;12.70
516;DHT22;244;48.508;9.052;2023-07-16T11:54:25;26.70;12.40
516;DHT22;244;48.508;9.052;2023-07-16T11:56:52;26.70;12.00
516;DHT22;244;48.508;9.052;2023-07-16T11:59:19;26.80;12.80
516;DHT22;244;48.508;9.052;2023-07-16T12:01:49;26.80;12.00
516;DHT22;244;48.508;9.052;2023-07-16T12:04:17;26.80;11.90
516;DHT22;244;48.508;9.052;2023-07-16T12:06:44;26.80;12.60
516;DHT22;244;48.508;9.052;2023-07-16T12:09:11;26.80;11.40
516;DHT22;244;48.508;9.052;2023-07-16T12:11:38;26.90;11.10
516;DHT22;244;48.508;9.052;2023-07-16T12:14:05;27.00;10.60
516;DHT22;244;48.508;9.052;2023-07-16T12:16:32;27.00;10.70
516;DHT22;244;48.508;9.052;2023-07-16T12:18:59;27.00;9.60
516;DHT22;244;48.508;9.052;2023-07-16T12:21:27;27.10;9.80
516;DHT22;244;48.508;9.052;2023-07-16T12:23:54;27.20;9.70
516;DHT22;244;48.508;9.052;2023-07-16T12:26:21;27.40;9.40
516;DHT22;244;48.508;9.052;2023-07-16T12:28:48;27.60;8.20
516;DHT22;244;48.508;9.052;2023-07-16T12:31:15;27.60;8.20
516;DHT22;244;48.508;9.052;2023-07-16T12:33:42;27.60;7.70
516;DHT22;244;48.508;9.052;2023-07-16T12:36:09;27.70;7.40
516;DHT22;244;48.508;9.052;2023-07-16T12:38:37;27.70;7.30
516;DHT22;244;48.508;9.052;2023-07-16T12:41:04;27.80;7.90
516;DHT22;244;48.508;9.052;2023-07-16T12:43:31;27.90;6.50
516;DHT22;244;48.508;9.052;2023-07-16T12:46:00;27.90;6.40
516;DHT22;244;48.508;9.052;2023-07-16T12:48:28;27.90;6.20
516;DHT22;244;48.508;9.052;2023-07-16T12:50:55;28.00;5.80
516;DHT22;244;48.508;9.052;2023-07-16T12:53:22;28.00;5.70
516;DHT22;244;48.508;9.052;2023-07-16T12:55:50;28.10;5.70
516;DHT22;244;48.508;9.052;2023-07-16T12:58:17;28.20;5.60
516;DHT22;244;48.508;9.052;2023-07-16T13:00:44;28.30;5.50
516;DHT22;244;48.508;9.052;2023-07-16T13:03:11;28.40;5.10
516;DHT22;244;48.508;9.052;2023-07-16T13:05:42;28.40;5.00
516;DHT22;244;48.508;9.052;2023-07-16T13:08:10;28.50;3.60
516;DHT22;244;48.508;9.052;2023-07-16T13:10:37;28.70;3.30
516;DHT22;244;48.508;9.052;2023-07-16T13:13:06;28.80;3.20
516;DHT22;244;48.508;9.052;2023-07-16T13:15:34;29.00;3.10
516;DHT22;244;48.508;9.052;2023-07-16T13:18:01;29.00;2.90
516;DHT22;244;48.508;9.052;2023-07-16T13:20:28;29.10;2.60
516;DHT22;244;48.508;9.052;2023-07-16T13:22:56;29.10;2.60
516;DHT22;244;48.508;9.052;2023-07-16T13:25:23;29.20;2.20
516;DHT22;244;48.508;9.052;2023-07-16T13:27:50;29.30;2.50
516;DHT22;244;48.508;9.052;2023-07-16T13:30:20;29.40;1.50
516;DHT22;244;48.508;9.052;2023-07-16T13:32:46;29.40;1.80
516;DHT22;244;48.508;9.052;2023-07-16T13:35:14;29.40;1.80
516;DHT22;244;48.508;9.052;2023-07-16T13:37:41;29.50;1.00
516;DHT22;244;48.508;9.052;2023-07-16T13:40:09;29.50;1.00
516;DHT22;244;48.508;9.052;2023-07-16T13:42:36;29.50;1.00
516;DHT22;244;48.508;9.052;2023-07-16T13:45:03;29.70;1.00
516;DHT22;244;48.508;9.052;2023-07-16T13:47:32;29.80;1.00
516;DHT22;244;48.508;9.052;2023-07-16T13:49:59;30.00;1.00
516;DHT22;244;48.508;9.052;2023-07-16T13:52:33;30.20;1.00
516;DHT22;244;48.508;9.052;2023-07-16T13:55:00;30.30;1.00
516;DHT22;244;48.508;9.052;2023-07-16T13:57:29;30.30;1.00
516;DHT22;244;48.508;9.052;2023-07-16T13:59:56;30.40;1.00
516;DHT22;244;48.508;9.052;2023-07-16T14:02:23;30.50;1.00
516;DHT22;244;48.508;9.052;2023-07-16T14:04:51;30.50;1.00
516;DHT22;244;48.508;9.052;2023-07-16T14:07:19;30.40;1.00
516;DHT22;244;48.508;9.052;2023-07-16T14:09:46;30.20;1.00
516;DHT22;244;48.508;9.052;2023-07-16T14:12:13;30.10;1.00
516;DHT22;244;48.508;9.052;2023-07-16T14:14:39;30.00;1.00
516;DHT22;244;48.508;9.052;2023-07-16T14:17:06;29.80;1.00
516;DHT22;244;48.508;9.052;2023-07-16T14:19:33;29.80;1.00
516;DHT22;244;48.508;9.052;2023-07-16T14:22:01;29.70;1.00
516;DHT22;244;48.508;9.052;2023-07-16T14:24:28;29.70;1.00
516;DHT22;244;48.508;9.052;2023-07-16T14:26:58;29.60;1.00
516;DHT22;244;48.508;9.052;2023-07-16T14:29:25;29.50;1.00
516;DHT22;244;48.508;9.052;2023-07-16T14:31:54;29.70;1.00
516;DHT22;244;48.508;9.052;2023-07-16T14:34:21;30.00;1.00
516;DHT22;244;48.508;9.052;2023-07-16T14:36:48;30.50;1.00
516;DHT22;244;48.508;9.052;2023-07-16T14:39:17;30.80;1.00
516;DHT22;244;48.508;9.052;2023-07-16T14:41:43;31.20;1.00
516;DHT22;244;48.508;9.052;2023-07-16T14:44:11;31.70;1.00
516;DHT22;244;48.508;9.052;2023-07-16T14:46:37;32.20;1.00
516;DHT22;244;48.508;9.052;2023-07-16T14:49:04;32.60;1.00
516;DHT22;244;48.508;9.052;2023-07-16T14:51:31;33.00;1.00
516;DHT22;244;48.508;9.052;2023-07-16T14:54:05;33.20;1.00
516;DHT22;244;48.508;9.052;2023-07-16T14:56:33;33.40;1.00
516;DHT22;244;48.508;9.052;2023-07-16T14:59:01;33.50;1.00
516;DHT22;244;48.508;9.052;2023-07-16T15:01:28;33.60;1.00
516;DHT22;244;48.508;9.052;2023-07-16T15:03:55;33.60;1.00
516;DHT22;244;48.508;9.052;2023-07-16T15:06:21;33.70;1.00
516;DHT22;244;48.508;9.052;2023-07-16T15:08:50;33.80;1.00
516;DHT22;244;48.508;9.052;2023-07-16T15:11:17;33.80;1.00
516;DHT22;244;48.508;9.052;2023-07-16T15:13:45;33.70;1.00
516;DHT22;244;48.508;9.052;2023-07-16T15:16:12;33.40;1.00
516;DHT22;244;48.508;9.052;2023-07-16T15:18:39;33.00;1.00
516;DHT22;244;48.508;9.052;2023-07-16T15:21:06;32.50;1.00
516;DHT22;244;48.508;9.052;2023-07-16T15:23:33;32.10;1.00
516;DHT22;244;48.508;9.052;2023-07-16T15:26:02;31.80;1.00
516;DHT22;244;48.508;9.052;2023-07-16T15:28:30;31.40;1.00
516;DHT22;244;48.508;9.052;2023-07-16T15:31:01;31.00;1.00
516;DHT22;244;48.508;9.052;2023-07-16T15:33:27;30.80;1.00
516;DHT22;244;48.508;9.052;2023-07-16T15:35:55;30.50;1.00
516;DHT22;244;48.508;9.052;2023-07-16T15:38:22;30.30;1.00
516;DHT22;244;48.508;9.052;2023-07-16T15:40:50;30.10;1.00
516;DHT22;244;48.508;9.052;2023-07-16T15:43:18;30.00;1.00
516;DHT22;244;48.508;9.052;2023-07-16T15:45:45;29.70;1.00
516;DHT22;244;48.508;9.052;2023-07-16T15:48:13;29.60;1.00
516;DHT22;244;48.508;9.052;2023-07-16T15:50:40;29.50;1.00
516;DHT22;244;48.508;9.052;2023-07-16T15:53:07;29.50;1.00
516;DHT22;244;48.508;9.052;2023-07-16T15:55:34;29.40;1.00
516;DHT22;244;48.508;9.052;2023-07-16T15:58:02;29.30;1.00
516;DHT22;244;48.508;9.052;2023-07-16T16:00:29;29.20;1.00
516;DHT22;244;48.508;9.052;2023-07-16T16:02:58;29.00;1.00
516;DHT22;244;48.508;9.052;2023-07-16T16:05:29;28.90;1.00
516;DHT22;244;48.508;9.052;2023-07-16T16:08:13;28.80;1.00
516;DHT22;244;48.508;9.052;2023-07-16T16:10:41;28.70;1.00
516;DHT22;244;48.508;9.052;2023-07-16T16:13:08;28.70;1.00
516;DHT22;244;48.508;9.052;2023-07-16T16:15:35;28.70;1.00
516;DHT22;244;48.508;9.052;2023-07-16T16:18:11;28.70;1.00
516;DHT22;244;48.508;9.052;2023-07-16T16:20:43;28.60;1.00
516;DHT22;244;48.508;9.052;2023-07-16T16:23:11;28.60;1.00
516;DHT22;244;48.508;9.052;2023-07-16T16:25:40;28.50;1.00
516;DHT22;244;48.508;9.052;2023-07-16T16:28:10;28.50;1.00
516;DHT22;244;48.508;9.052;2023-07-16T16:30:39;28.50;1.00
516;DHT22;244;48.508;9.052;2023-07-16T16:33:07;28.40;1.00
516;DHT22;244;48.508;9.052;2023-07-16T16:35:37;28.30;1.00
516;DHT22;244;48.508;9.052;2023-07-16T16:38:06;28.20;1.00
516;DHT22;244;48.508;9.052;2023-07-16T16:40:33;28.20;1.00
516;DHT22;244;48.508;9.052;2023-07-16T16:43:01;28.20;1.00